createdAt,value
2018-10-03T00:02:09.048Z,9.68
2018-10-03T00:04:39.178Z,9.72
2018-10-03T00:07:08.981Z,9.58
2018-10-03T00:09:38.840Z,9.54
2018-10-03T00:12:08.729Z,9.52
2018-10-03T00:14:38.511Z,9.69
2018-10-03T00:17:08.325Z,9.62
2018-10-03T00:19:38.303Z,9.57
2018-10-03T00:22:08.125Z,9.49
2018-10-03T00:24:37.903Z,9.52
2018-10-03T00:27:07.982Z,9.53
2018-10-03T00:29:38.305Z,9.53
2018-10-03T00:32:08.438Z,9.54
2018-10-03T00:34:38.247Z,9.47
2018-10-03T00:37:08.095Z,9.47
2018-10-03T00:39:38.064Z,9.49
2018-10-03T00:42:07.920Z,9.53
2018-10-03T00:44:37.673Z,9.60
2018-10-03T00:47:07.597Z,9.64
2018-10-03T00:49:38.435Z,9.67
2018-10-03T00:52:08.219Z,9.72
2018-10-03T00:54:38.029Z,9.81
2018-10-03T00:57:08.704Z,9.72
2018-10-03T00:59:38.840Z,9.75
2018-10-03T01:02:10.337Z,9.80
2018-10-03T01:04:41.028Z,9.83
2018-10-03T01:07:10.912Z,9.90
2018-10-03T01:09:40.688Z,9.92
2018-10-03T01:12:10.589Z,9.98
2018-10-03T01:14:40.744Z,9.95
2018-10-03T01:17:11.289Z,10.00
2018-10-03T01:19:41.124Z,9.97
2018-10-03T01:22:11.632Z,9.92
2018-10-03T01:24:42.897Z,9.94
2018-10-03T01:27:12.743Z,9.96
2018-10-03T01:29:42.634Z,9.89
2018-10-03T01:32:12.429Z,9.91
2018-10-03T01:34:42.328Z,9.89
2018-10-03T01:37:12.113Z,9.98
2018-10-03T01:39:42.285Z,9.98
2018-10-03T01:42:12.130Z,9.89
2018-10-03T01:44:42.130Z,9.90
2018-10-03T01:47:12.165Z,9.89
2018-10-03T01:49:42.779Z,9.90
2018-10-03T01:52:12.730Z,9.98
2018-10-03T01:54:42.538Z,10.01
2018-10-03T01:57:12.419Z,10.07
2018-10-03T01:59:43.565Z,10.08
2018-10-03T02:02:13.513Z,10.12
2018-10-03T02:04:43.328Z,10.16
2018-10-03T02:07:13.206Z,10.15
2018-10-03T02:09:43.227Z,10.21
2018-10-03T02:12:13.126Z,10.22
2018-10-03T02:14:43.081Z,10.21
2018-10-03T02:17:12.878Z,10.25
2018-10-03T02:19:42.839Z,10.29
2018-10-03T02:22:13.347Z,10.35
2018-10-03T02:24:42.992Z,10.31
2018-10-03T02:27:13.552Z,10.28
2018-10-03T02:29:43.609Z,10.27
2018-10-03T02:32:14.299Z,10.29
2018-10-03T02:34:50.893Z,10.28
2018-10-03T02:37:21.310Z,10.26
2018-10-03T02:39:51.197Z,10.27
2018-10-03T02:42:21.218Z,10.26
2018-10-03T02:44:50.906Z,10.27
2018-10-03T02:47:20.653Z,10.27
2018-10-03T02:49:50.392Z,10.25
2018-10-03T02:52:20.558Z,10.27
2018-10-03T02:54:50.673Z,10.25
2018-10-03T02:57:20.614Z,10.30
2018-10-03T02:59:51.140Z,10.36
2018-10-03T03:02:21.083Z,10.31
2018-10-03T03:04:50.999Z,10.35
2018-10-03T03:07:21.542Z,10.35
2018-10-03T03:09:51.902Z,10.45
2018-10-03T03:12:22.047Z,10.42
2018-10-03T03:14:52.034Z,10.45
2018-10-03T03:17:21.977Z,10.46
2018-10-03T03:19:51.782Z,10.55
2018-10-03T03:22:22.451Z,10.56
2018-10-03T03:24:52.134Z,10.59
2018-10-03T03:27:21.974Z,10.59
2018-10-03T03:29:51.837Z,10.60
2018-10-03T03:32:21.638Z,10.63
2018-10-03T03:34:51.694Z,10.70
2018-10-03T03:37:22.153Z,10.66
2018-10-03T03:39:53.379Z,10.71
2018-10-03T03:42:24.396Z,10.68
2018-10-03T03:44:54.471Z,10.67
2018-10-03T03:47:24.171Z,10.62
2018-10-03T03:49:53.932Z,10.66
2018-10-03T03:52:24.266Z,10.66
2018-10-03T03:54:54.219Z,10.68
2018-10-03T03:57:24.108Z,10.68
2018-10-03T03:59:53.933Z,10.69
2018-10-03T04:02:23.864Z,10.63
2018-10-03T04:04:54.373Z,10.66
2018-10-03T04:07:24.908Z,10.63
2018-10-03T04:09:54.767Z,10.62
2018-10-03T04:12:24.618Z,10.55
2018-10-03T04:14:54.328Z,10.57
2018-10-03T04:17:24.119Z,10.60
2018-10-03T04:19:54.083Z,10.60
2018-10-03T04:22:23.795Z,10.47
2018-10-03T04:24:54.209Z,10.42
2018-10-03T04:27:24.092Z,10.45
2018-10-03T04:29:53.802Z,10.49
2018-10-03T04:32:24.293Z,10.44
2018-10-03T04:34:54.057Z,10.37
2018-10-03T04:37:24.831Z,10.43
2018-10-03T04:39:55.260Z,10.51
2018-10-03T04:42:26.272Z,10.42
2018-10-03T04:44:56.056Z,10.36
2018-10-03T04:47:25.807Z,10.42
2018-10-03T04:49:55.762Z,10.46
2018-10-03T04:52:25.722Z,10.35
2018-10-03T04:54:56.076Z,10.38
2018-10-03T04:57:25.851Z,10.32
2018-10-03T04:59:56.283Z,10.35
2018-10-03T05:02:26.046Z,10.40
2018-10-03T05:04:57.243Z,10.28
2018-10-03T05:07:27.162Z,10.29
2018-10-03T05:09:57.088Z,10.29
2018-10-03T05:12:27.751Z,10.37
2018-10-03T05:14:57.726Z,10.24
2018-10-03T05:17:27.512Z,10.30
2018-10-03T05:19:57.316Z,10.24
2018-10-03T05:22:27.776Z,10.22
2018-10-03T05:25:04.118Z,10.25
2018-10-03T05:27:33.858Z,10.32
2018-10-03T05:30:03.661Z,10.25
2018-10-03T05:32:34.168Z,10.32
2018-10-03T05:35:04.943Z,10.33
2018-10-03T05:37:35.045Z,10.36
2018-10-03T05:40:06.682Z,10.32
2018-10-03T05:42:37.874Z,10.38
2018-10-03T05:45:08.708Z,10.41
2018-10-03T05:47:39.158Z,10.42
2018-10-03T05:50:09.046Z,10.51
2018-10-03T05:52:39.646Z,10.51
2018-10-03T05:55:10.177Z,10.47
2018-10-03T05:57:40.046Z,10.54
2018-10-03T06:00:10.017Z,10.55
2018-10-03T06:02:39.990Z,10.58
2018-10-03T06:05:09.783Z,10.59
2018-10-03T06:07:39.589Z,10.64
2018-10-03T06:10:09.722Z,10.62
2018-10-03T06:12:39.486Z,10.68
2018-10-03T06:15:09.476Z,10.71
2018-10-03T06:17:39.257Z,10.74
2018-10-03T06:20:09.615Z,10.61
2018-10-03T06:22:39.997Z,10.76
2018-10-03T06:25:09.905Z,10.87
2018-10-03T06:27:40.390Z,10.94
2018-10-03T06:30:10.884Z,11.01
2018-10-03T06:32:40.649Z,10.87
2018-10-03T06:35:10.433Z,10.85
2018-10-03T06:37:40.995Z,11.22
2018-10-03T06:40:10.843Z,11.23
2018-10-03T06:42:40.895Z,11.03
2018-10-03T06:45:10.806Z,11.27
2018-10-03T06:47:42.006Z,11.11
2018-10-03T06:50:13.037Z,11.45
2018-10-03T06:52:42.885Z,11.18
2018-10-03T06:55:12.735Z,11.31
2018-10-03T06:57:42.602Z,11.33
2018-10-03T07:00:12.681Z,11.75
2018-10-03T07:02:42.535Z,11.47
2018-10-03T07:05:12.380Z,11.30
2018-10-03T07:07:42.270Z,11.18
2018-10-03T07:10:12.702Z,11.47
2018-10-03T07:12:42.732Z,11.58
2018-10-03T07:15:13.187Z,11.33
2018-10-03T07:17:44.316Z,11.37
2018-10-03T07:20:14.230Z,11.57
2018-10-03T07:22:44.025Z,11.72
2018-10-03T07:25:14.632Z,11.88
2018-10-03T07:27:45.015Z,11.56
2018-10-03T07:30:17.905Z,11.68
2018-10-03T07:32:48.290Z,11.67
2018-10-03T07:35:18.336Z,11.84
2018-10-03T07:37:48.181Z,11.69
2018-10-03T07:40:18.229Z,11.73
2018-10-03T07:42:48.177Z,11.75
2018-10-03T07:45:18.164Z,11.59
2018-10-03T07:47:48.167Z,11.82
2018-10-03T07:50:18.136Z,11.87
2018-10-03T07:52:48.793Z,11.83
2018-10-03T07:55:18.672Z,11.94
2018-10-03T07:57:48.572Z,12.07
2018-10-03T08:00:27.407Z,12.14
2018-10-03T08:02:59.451Z,12.14
2018-10-03T08:05:30.618Z,11.92
2018-10-03T08:08:00.831Z,12.00
2018-10-03T08:10:31.146Z,12.52
2018-10-03T08:13:01.231Z,12.08
2018-10-03T08:15:31.395Z,12.33
2018-10-03T08:18:01.482Z,12.31
2018-10-03T08:20:31.757Z,12.39
2018-10-03T08:23:02.025Z,12.67
2018-10-03T08:25:32.244Z,12.54
2018-10-03T08:28:02.290Z,12.45
2018-10-03T08:30:32.512Z,12.46
2018-10-03T08:33:02.547Z,12.53
2018-10-03T08:35:33.076Z,12.62
2018-10-03T08:38:03.082Z,12.45
2018-10-03T08:40:33.276Z,12.68
2018-10-03T08:43:03.518Z,12.75
2018-10-03T08:45:33.681Z,12.73
2018-10-03T08:48:03.868Z,12.74
2018-10-03T08:50:34.090Z,12.52
2018-10-03T08:53:04.206Z,12.85
2018-10-03T08:55:34.537Z,13.16
2018-10-03T08:58:04.692Z,12.70
2018-10-03T09:00:35.092Z,12.97
2018-10-03T09:03:05.778Z,12.60
2018-10-03T09:05:35.916Z,12.56
2018-10-03T09:08:15.515Z,12.81
2018-10-03T09:10:47.759Z,12.89
2018-10-03T09:13:17.716Z,12.92
2018-10-03T09:15:47.751Z,13.03
2018-10-03T09:18:19.155Z,12.99
2018-10-03T09:20:49.787Z,13.50
2018-10-03T09:23:19.567Z,13.09
2018-10-03T09:25:49.703Z,13.38
2018-10-03T09:28:19.880Z,13.38
2018-10-03T09:30:50.013Z,13.75
2018-10-03T09:33:20.151Z,13.66
2018-10-03T09:35:50.306Z,13.41
2018-10-03T09:38:20.449Z,14.05
2018-10-03T09:40:51.026Z,13.98
2018-10-03T09:43:20.959Z,14.13
2018-10-03T09:45:50.953Z,13.99
2018-10-03T09:48:20.980Z,13.37
2018-10-03T09:50:51.092Z,13.48
2018-10-03T09:53:21.887Z,13.51
2018-10-03T09:55:53.192Z,13.63
2018-10-03T09:58:23.124Z,13.76
2018-10-03T10:00:58.117Z,13.71
2018-10-03T10:03:28.000Z,13.53
2018-10-03T10:05:58.574Z,13.63
2018-10-03T10:08:28.636Z,14.17
2018-10-03T10:10:58.857Z,13.64
2018-10-03T10:13:29.180Z,13.43
2018-10-03T10:15:59.381Z,13.65
2018-10-03T10:18:29.616Z,13.80
2018-10-03T10:20:59.778Z,14.26
2018-10-03T10:23:30.211Z,14.11
2018-10-03T10:26:00.477Z,13.80
2018-10-03T10:28:31.431Z,14.00
2018-10-03T10:31:01.601Z,13.88
2018-10-03T10:33:32.693Z,14.12
2018-10-03T10:36:02.794Z,14.21
2018-10-03T10:38:32.914Z,13.87
2018-10-03T10:41:03.013Z,14.32
2018-10-03T10:43:33.743Z,14.05
2018-10-03T10:46:05.206Z,13.68
2018-10-03T10:48:35.920Z,13.82
2018-10-03T10:51:05.916Z,13.92
2018-10-03T10:53:36.145Z,13.84
2018-10-03T10:56:06.189Z,14.06
2018-10-03T10:58:36.311Z,14.67
2018-10-03T11:01:06.361Z,14.06
2018-10-03T11:03:37.053Z,14.79
2018-10-03T11:06:07.126Z,14.74
2018-10-03T11:08:37.786Z,13.86
2018-10-03T11:11:07.631Z,14.13
2018-10-03T11:13:38.559Z,14.47
2018-10-03T11:16:08.701Z,14.35
2018-10-03T11:18:38.575Z,14.82
2018-10-03T11:21:08.435Z,14.41
2018-10-03T11:23:38.612Z,14.30
2018-10-03T11:26:08.270Z,14.43
2018-10-03T11:28:38.834Z,14.35
2018-10-03T11:31:09.273Z,14.61
2018-10-03T11:33:39.979Z,14.36
2018-10-03T11:36:10.158Z,14.94
2018-10-03T11:38:40.129Z,15.05
2018-10-03T11:41:10.964Z,14.78
2018-10-03T11:43:41.172Z,14.54
2018-10-03T11:46:11.383Z,14.63
2018-10-03T11:48:41.448Z,14.26
2018-10-03T11:51:11.346Z,14.85
2018-10-03T11:53:41.345Z,14.76
2018-10-03T11:56:11.955Z,14.71
2018-10-03T11:58:42.413Z,14.55
2018-10-03T12:01:13.464Z,14.55
2018-10-03T12:03:45.769Z,14.95
2018-10-03T12:06:15.967Z,15.01
2018-10-03T12:08:46.538Z,15.13
2018-10-03T12:11:17.468Z,14.99
2018-10-03T12:13:47.580Z,14.81
2018-10-03T12:16:18.845Z,14.66
2018-10-03T12:18:49.073Z,15.40
2018-10-03T12:21:19.032Z,15.22
2018-10-03T12:23:49.190Z,15.24
2018-10-03T12:26:19.393Z,15.43
2018-10-03T12:28:49.823Z,15.51
2018-10-03T12:31:19.709Z,15.01
2018-10-03T12:33:50.582Z,15.11
2018-10-03T12:36:21.332Z,14.55
2018-10-03T12:38:51.544Z,14.41
2018-10-03T12:41:21.593Z,14.53
2018-10-03T12:43:51.972Z,14.63
2018-10-03T12:46:21.965Z,14.32
2018-10-03T12:48:52.300Z,14.46
2018-10-03T12:51:22.346Z,14.60
2018-10-03T12:53:52.597Z,14.40
2018-10-03T12:56:22.632Z,14.60
2018-10-03T12:58:52.952Z,14.59
2018-10-03T13:01:23.155Z,14.36
2018-10-03T13:03:53.319Z,14.80
2018-10-03T13:06:23.531Z,14.74
2018-10-03T13:08:53.746Z,14.51
2018-10-03T13:11:23.765Z,14.14
2018-10-03T13:13:54.063Z,14.30
2018-10-03T13:16:24.199Z,14.12
2018-10-03T13:18:54.525Z,14.11
2018-10-03T13:21:24.532Z,14.03
2018-10-03T13:23:54.966Z,14.13
2018-10-03T13:26:25.005Z,14.33
2018-10-03T13:28:55.252Z,14.42
2018-10-03T13:31:25.278Z,14.53
2018-10-03T13:33:55.685Z,14.09
2018-10-03T13:36:25.654Z,14.48
2018-10-03T13:38:56.036Z,14.43
2018-10-03T13:41:25.997Z,14.60
2018-10-03T13:43:56.361Z,14.69
2018-10-03T13:46:26.164Z,14.68
2018-10-03T13:48:56.760Z,14.45
2018-10-03T13:51:26.810Z,14.71
2018-10-03T13:53:57.242Z,14.84
2018-10-03T13:56:28.180Z,14.81
2018-10-03T13:58:58.500Z,14.86
2018-10-03T14:01:28.482Z,14.97
2018-10-03T14:03:58.917Z,15.10
2018-10-03T14:06:29.039Z,15.01
2018-10-03T14:08:59.244Z,14.78
2018-10-03T14:11:29.464Z,14.68
2018-10-03T14:13:59.699Z,14.85
2018-10-03T14:16:29.836Z,15.05
2018-10-03T14:19:00.303Z,14.65
2018-10-03T14:21:31.527Z,14.54
2018-10-03T14:24:02.638Z,14.53
2018-10-03T14:26:32.794Z,14.69
2018-10-03T14:29:03.030Z,14.56
2018-10-03T14:31:33.075Z,14.37
2018-10-03T14:34:03.228Z,14.35
2018-10-03T14:36:33.282Z,14.25
2018-10-03T14:39:03.981Z,14.17
2018-10-03T14:41:34.912Z,14.28
2018-10-03T14:44:05.168Z,14.33
2018-10-03T14:46:35.662Z,14.53
2018-10-03T14:49:06.655Z,14.63
2018-10-03T14:51:36.568Z,14.67
2018-10-03T14:54:06.683Z,14.51
2018-10-03T14:56:37.206Z,14.49
2018-10-03T14:59:08.113Z,14.55
2018-10-03T15:01:37.983Z,14.63
2018-10-03T15:04:08.135Z,14.46
2018-10-03T15:06:38.249Z,14.47
2018-10-03T15:09:10.048Z,14.41
2018-10-03T15:11:41.269Z,14.44
2018-10-03T15:14:12.559Z,14.48
2018-10-03T15:16:42.379Z,14.51
2018-10-03T15:19:12.264Z,14.42
2018-10-03T15:21:42.839Z,14.32
2018-10-03T15:24:12.666Z,14.15
2018-10-03T15:26:42.532Z,14.14
2018-10-03T15:29:12.506Z,14.27
2018-10-03T15:31:42.629Z,14.07
2018-10-03T15:34:13.035Z,14.02
2018-10-03T15:36:43.847Z,13.96
2018-10-03T15:39:14.403Z,13.97
2018-10-03T15:41:44.363Z,13.89
2018-10-03T15:44:14.537Z,13.83
2018-10-03T15:46:51.294Z,13.88
2018-10-03T15:49:21.974Z,13.92
2018-10-03T15:51:52.794Z,13.96
2018-10-03T15:54:22.767Z,13.95
2018-10-03T15:56:52.758Z,14.12
2018-10-03T15:59:22.598Z,14.20
2018-10-03T16:01:52.734Z,14.16
2018-10-03T16:04:22.911Z,14.29
2018-10-03T16:06:53.473Z,14.19
2018-10-03T16:09:23.415Z,14.18
2018-10-03T16:11:53.444Z,14.09
2018-10-03T16:14:23.699Z,14.06
2018-10-03T16:16:53.591Z,14.02
2018-10-03T16:19:24.415Z,13.97
2018-10-03T16:21:54.448Z,13.97
2018-10-03T16:24:24.530Z,13.91
2018-10-03T16:26:54.343Z,13.81
2018-10-03T16:29:24.977Z,13.83
2018-10-03T16:31:55.177Z,13.81
2018-10-03T16:34:25.344Z,13.79
2018-10-03T16:36:55.513Z,13.74
2018-10-03T16:39:25.530Z,13.68
2018-10-03T16:41:55.707Z,13.66
2018-10-03T16:44:28.983Z,13.62
2018-10-03T16:46:58.862Z,13.54
2018-10-03T16:49:29.402Z,13.55
2018-10-03T16:52:00.546Z,13.50
2018-10-03T16:54:31.012Z,13.44
2018-10-03T16:57:00.953Z,13.31
2018-10-03T16:59:30.832Z,13.28
2018-10-03T17:02:00.727Z,13.18
2018-10-03T17:04:30.686Z,13.11
2018-10-03T17:07:00.824Z,13.00
2018-10-03T17:09:31.052Z,12.96
2018-10-03T17:12:01.298Z,12.91
2018-10-03T17:14:35.716Z,12.84
2018-10-03T17:17:06.706Z,12.76
2018-10-03T17:19:37.667Z,12.56
2018-10-03T17:22:07.997Z,12.60
2018-10-03T17:24:38.642Z,12.41
2018-10-03T17:27:09.448Z,12.47
2018-10-03T17:29:39.375Z,12.46
2018-10-03T17:32:09.652Z,12.33
2018-10-03T17:34:39.897Z,12.24
2018-10-03T17:37:09.971Z,12.29
2018-10-03T17:39:40.464Z,12.23
2018-10-03T17:42:10.388Z,12.09
2018-10-03T17:44:40.647Z,12.19
2018-10-03T17:47:10.680Z,12.07
2018-10-03T17:49:41.313Z,11.98
2018-10-03T17:52:11.322Z,12.02
2018-10-03T17:54:41.397Z,11.94
2018-10-03T17:57:11.554Z,11.93
2018-10-03T17:59:41.697Z,11.91
2018-10-03T18:02:13.481Z,11.80
2018-10-03T18:04:44.243Z,11.82
2018-10-03T18:07:14.475Z,11.88
2018-10-03T18:09:45.708Z,11.78
2018-10-03T18:12:16.748Z,11.78
2018-10-03T18:14:46.781Z,11.69
2018-10-03T18:17:17.171Z,11.63
2018-10-03T18:19:47.283Z,11.70
2018-10-03T18:22:17.699Z,11.68
2018-10-03T18:24:47.730Z,11.73
2018-10-03T18:27:17.966Z,11.64
2018-10-03T18:29:48.176Z,11.52
2018-10-03T18:32:19.428Z,11.49
2018-10-03T18:34:50.298Z,11.44
2018-10-03T18:37:20.982Z,11.52
2018-10-03T18:39:51.773Z,11.68
2018-10-03T18:42:22.024Z,11.65
2018-10-03T18:44:53.572Z,11.69
2018-10-03T18:47:24.685Z,11.68
2018-10-03T18:49:55.784Z,11.73
2018-10-03T18:52:26.129Z,11.75
2018-10-03T18:54:56.335Z,11.82
2018-10-03T18:57:26.915Z,11.84
2018-10-03T18:59:57.448Z,11.82
2018-10-03T19:02:28.546Z,11.79
2018-10-03T19:04:58.822Z,11.81
2018-10-03T19:07:30.072Z,11.76
2018-10-03T19:10:07.060Z,11.70
2018-10-03T19:12:37.363Z,11.61
2018-10-03T19:15:07.904Z,11.66
2018-10-03T19:17:38.326Z,11.56
2018-10-03T19:20:08.920Z,11.55
2018-10-03T19:22:39.837Z,11.49
2018-10-03T19:25:10.399Z,11.46
2018-10-03T19:27:40.677Z,11.43
2018-10-03T19:30:11.844Z,11.29
2018-10-03T19:32:42.278Z,11.41
2018-10-03T19:35:12.737Z,11.36
2018-10-03T19:37:43.077Z,11.33
2018-10-03T19:40:13.390Z,11.34
2018-10-03T19:42:43.357Z,11.18
2018-10-03T19:45:13.530Z,11.06
2018-10-03T19:47:43.688Z,11.05
2018-10-03T19:50:13.910Z,11.09
2018-10-03T19:52:44.313Z,11.20
2018-10-03T19:55:15.172Z,11.21
2018-10-03T19:57:45.255Z,11.10
2018-10-03T20:00:15.621Z,11.09
2018-10-03T20:02:45.404Z,11.04
2018-10-03T20:05:16.104Z,11.13
2018-10-03T20:07:46.230Z,10.90
2018-10-03T20:10:17.415Z,10.95
2018-10-03T20:12:47.295Z,10.99
2018-10-03T20:15:17.929Z,10.99
2018-10-03T20:17:48.874Z,10.88
2018-10-03T20:20:18.895Z,10.92
2018-10-03T20:22:48.800Z,10.81
2018-10-03T20:25:18.817Z,10.83
2018-10-03T20:27:48.756Z,10.82
2018-10-03T20:30:18.760Z,10.81
2018-10-03T20:32:49.228Z,10.85
2018-10-03T20:35:19.361Z,10.94
2018-10-03T20:37:49.229Z,10.90
2018-10-03T20:40:19.901Z,10.95
2018-10-03T20:42:49.857Z,11.04
2018-10-03T20:45:19.914Z,10.99
2018-10-03T20:47:49.896Z,10.96
2018-10-03T20:50:25.321Z,10.96
2018-10-03T20:52:55.220Z,10.81
2018-10-03T20:55:25.932Z,10.75
2018-10-03T20:57:56.028Z,10.73
2018-10-03T21:00:26.411Z,10.75
2018-10-03T21:02:56.392Z,10.68
2018-10-03T21:05:27.290Z,10.69
2018-10-03T21:07:57.807Z,10.67
2018-10-03T21:10:28.597Z,10.59
2018-10-03T21:12:58.698Z,10.60
2018-10-03T21:15:29.204Z,10.56
2018-10-03T21:17:59.462Z,10.54
2018-10-03T21:20:30.824Z,10.50
2018-10-03T21:23:01.892Z,10.47
2018-10-03T21:25:32.604Z,10.41
2018-10-03T21:28:02.891Z,10.43
2018-10-03T21:30:33.730Z,10.40
2018-10-03T21:33:06.654Z,10.26
2018-10-03T21:35:36.859Z,10.24
2018-10-03T21:38:07.251Z,10.13
2018-10-03T21:40:37.210Z,10.08
2018-10-03T21:43:07.803Z,10.14
2018-10-03T21:45:38.665Z,10.15
2018-10-03T21:48:08.890Z,10.14
2018-10-03T21:50:39.476Z,10.11
2018-10-03T21:53:09.352Z,10.16
2018-10-03T21:55:39.380Z,10.13
2018-10-03T21:58:09.591Z,10.05
2018-10-03T22:00:44.470Z,10.01
2018-10-03T22:03:14.731Z,10.00
2018-10-03T22:05:44.955Z,10.01
2018-10-03T22:08:15.690Z,10.02
2018-10-03T22:10:47.204Z,9.98
2018-10-03T22:13:17.315Z,9.94
2018-10-03T22:15:47.999Z,9.92
2018-10-03T22:18:19.057Z,9.80
2018-10-03T22:20:49.239Z,9.77
2018-10-03T22:23:21.355Z,9.79
2018-10-03T22:25:51.889Z,9.71
2018-10-03T22:28:21.807Z,9.69
2018-10-03T22:30:52.322Z,9.70
2018-10-03T22:33:22.239Z,9.75
2018-10-03T22:35:52.167Z,9.68
2018-10-03T22:38:22.148Z,9.59
2018-10-03T22:40:52.226Z,9.67
2018-10-03T22:43:22.109Z,9.59
2018-10-03T22:45:52.345Z,9.57
2018-10-03T22:48:22.555Z,9.55
2018-10-03T22:50:52.389Z,9.53
2018-10-03T22:53:22.449Z,9.43
2018-10-03T22:55:52.965Z,9.46
2018-10-03T22:58:23.619Z,9.37
2018-10-03T23:00:54.078Z,9.40
2018-10-03T23:03:23.926Z,9.38
2018-10-03T23:05:54.455Z,9.35
2018-10-03T23:08:24.433Z,9.30
2018-10-03T23:10:54.451Z,9.41
2018-10-03T23:13:24.245Z,9.49
2018-10-03T23:15:54.209Z,9.48
2018-10-03T23:18:24.471Z,9.49
2018-10-03T23:20:54.975Z,9.54
2018-10-03T23:23:25.031Z,9.59
2018-10-03T23:25:54.980Z,9.51
2018-10-03T23:28:24.783Z,9.52
2018-10-03T23:30:55.450Z,9.63
2018-10-03T23:33:25.843Z,9.62
2018-10-03T23:35:55.899Z,9.61
2018-10-03T23:38:25.978Z,9.66
2018-10-03T23:40:56.004Z,9.66
2018-10-03T23:43:25.895Z,9.64
2018-10-03T23:46:02.660Z,9.54
2018-10-03T23:48:32.643Z,9.61
2018-10-03T23:51:02.963Z,9.71
2018-10-03T23:53:32.942Z,9.76
2018-10-03T23:56:02.753Z,9.78
2018-10-03T23:58:32.550Z,9.79
